sensor_id;sensor_type;location;lat;lon;timestamp;pressure;altitude;pressure_sealevel;temperature;humidity
50105;BME280;47690;39.202;-77.198;2022-10-22T01:13:23;100547.75;;;37.40;8.78
50105;BME280;47690;39.202;-77.198;2022-10-22T02:00:45;100583.19;;;37.07;9.25
50105;BME280;47690;39.202;-77.198;2022-10-22T02:50:49;100632.53;;;34.59;10.61
50105;BME280;47690;39.202;-77.198;2022-10-22T02:56:19;100639.38;;;34.62;10.68
50105;BME280;47690;39.202;-77.198;2022-10-22T02:59:24;100636.31;;;34.73;10.51
50105;BME280;47690;39.202;-77.198;2022-10-22T03:09:13;100642.19;;;34.68;10.47
50105;BME280;47690;39.202;-77.198;2022-10-22T03:22:28;100644.06;;;34.59;10.68
50105;BME280;47690;39.202;-77.198;2022-10-22T03:26:32;100638.72;;;34.59;10.54
50105;BME280;47690;39.202;-77.198;2022-10-22T03:29:16;100649.47;;;34.26;10.89
50105;BME280;47690;39.202;-77.198;2022-10-22T03:32:14;100649.78;;;33.98;10.92
50105;BME280;47690;39.202;-77.198;2022-10-22T03:34:56;100653.81;;;33.69;10.98
50105;BME280;47690;39.202;-77.198;2022-10-22T03:40:36;100661.75;;;33.44;10.99
50105;BME280;47690;39.202;-77.198;2022-10-22T03:43:44;100655.97;;;33.49;11.21
50105;BME280;47690;39.202;-77.198;2022-10-22T03:47:48;100663.31;;;33.55;10.96
50105;BME280;47690;39.202;-77.198;2022-10-22T03:54:55;100674.19;;;33.70;11.29
50105;BME280;47690;39.202;-77.198;2022-10-22T03:57:46;100673.94;;;33.47;11.47
50105;BME280;47690;39.202;-77.198;2022-10-22T04:00:35;100677.97;;;33.51;11.08
50105;BME280;47690;39.202;-77.198;2022-10-22T04:05:24;100683.63;;;33.48;11.29
50105;BME280;47690;39.202;-77.198;2022-10-22T04:08:55;100682.56;;;34.09;10.79
50105;BME280;47690;39.202;-77.198;2022-10-22T04:12:48;100684.16;;;33.51;11.41
50105;BME280;47690;39.202;-77.198;2022-10-22T04:16:24;100689.16;;;33.55;10.93
50105;BME280;47690;39.202;-77.198;2022-10-22T04:19:51;100688.50;;;33.61;10.88
50105;BME280;47690;39.202;-77.198;2022-10-22T04:28:43;100689.00;;;33.56;10.96
50105;BME280;47690;39.202;-77.198;2022-10-22T04:31:42;100695.34;;;33.55;11.25
50105;BME280;47690;39.202;-77.198;2022-10-22T04:35:39;100693.72;;;33.71;11.14
50105;BME280;47690;39.202;-77.198;2022-10-22T04:39:51;100696.22;;;33.64;10.84
50105;BME280;47690;39.202;-77.198;2022-10-22T04:43:24;100695.97;;;33.41;11.34
50105;BME280;47690;39.202;-77.198;2022-10-22T04:51:59;100689.72;;;33.23;11.06
50105;BME280;47690;39.202;-77.198;2022-10-22T05:11:37;100690.72;;;33.74;10.99
50105;BME280;47690;39.202;-77.198;2022-10-22T05:47:06;100709.97;;;31.84;12.23
50105;BME280;47690;39.202;-77.198;2022-10-22T05:59:02;100716.44;;;32.62;11.30
50105;BME280;47690;39.202;-77.198;2022-10-22T06:13:03;100702.88;;;31.74;12.26
50105;BME280;47690;39.202;-77.198;2022-10-22T06:18:20;100706.50;;;32.28;11.65
50105;BME280;47690;39.202;-77.198;2022-10-22T06:21:44;100704.31;;;32.68;11.17
50105;BME280;47690;39.202;-77.198;2022-10-22T06:29:43;100702.25;;;33.15;11.04
50105;BME280;47690;39.202;-77.198;2022-10-22T06:33:45;100696.13;;;32.96;11.47
50105;BME280;47690;39.202;-77.198;2022-10-22T06:43:18;100698.88;;;32.33;11.66
50105;BME280;47690;39.202;-77.198;2022-10-22T06:46:18;100691.44;;;32.63;11.05
50105;BME280;47690;39.202;-77.198;2022-10-22T07:02:20;100686.88;;;33.17;11.03
50105;BME280;47690;39.202;-77.198;2022-10-22T07:15:20;100697.78;;;32.62;11.66
50105;BME280;47690;39.202;-77.198;2022-10-22T07:29:04;100699.03;;;32.32;11.17
50105;BME280;47690;39.202;-77.198;2022-10-22T07:32:44;100690.69;;;32.26;11.81
50105;BME280;47690;39.202;-77.198;2022-10-22T07:36:40;100685.16;;;32.01;11.62
50105;BME280;47690;39.202;-77.198;2022-10-22T07:39:50;100689.03;;;31.71;11.50
50105;BME280;47690;39.202;-77.198;2022-10-22T07:42:32;100690.81;;;31.52;11.91
50105;BME280;47690;39.202;-77.198;2022-10-22T07:45:08;100686.41;;;31.43;11.87
50105;BME280;47690;39.202;-77.198;2022-10-22T07:48:04;100698.09;;;30.94;12.37
50105;BME280;47690;39.202;-77.198;2022-10-22T07:50:40;100691.34;;;30.72;12.33
50105;BME280;47690;39.202;-77.198;2022-10-22T07:53:20;100690.03;;;30.66;12.43
50105;BME280;47690;39.202;-77.198;2022-10-22T07:56:15;100691.34;;;30.52;12.46
50105;BME280;47690;39.202;-77.198;2022-10-22T08:03:12;100682.91;;;30.76;12.53
50105;BME280;47690;39.202;-77.198;2022-10-22T08:06:53;100684.81;;;30.94;12.42
50105;BME280;47690;39.202;-77.198;2022-10-22T08:15:34;100676.16;;;31.20;12.34
50105;BME280;47690;39.202;-77.198;2022-10-22T08:31:08;100676.97;;;31.20;12.41
50105;BME280;47690;39.202;-77.198;2022-10-22T08:34:14;100681.97;;;31.33;11.95
50105;BME280;47690;39.202;-77.198;2022-10-22T08:37:32;100680.97;;;31.06;12.27
50105;BME280;47690;39.202;-77.198;2022-10-22T08:40:04;100688.69;;;31.00;12.36
50105;BME280;47690;39.202;-77.198;2022-10-22T08:49:11;100691.22;;;31.01;12.21
50105;BME280;47690;39.202;-77.198;2022-10-22T08:52:08;100687.88;;;30.99;12.13
50105;BME280;47690;39.202;-77.198;2022-10-22T08:55:43;100692.56;;;31.15;12.11
50105;BME280;47690;39.202;-77.198;2022-10-22T09:01:21;100699.22;;;31.57;11.72
50105;BME280;47690;39.202;-77.198;2022-10-22T09:07:41;100701.22;;;31.27;12.07
50105;BME280;47690;39.202;-77.198;2022-10-22T09:10:34;100706.91;;;31.04;12.11
50105;BME280;47690;39.202;-77.198;2022-10-22T09:13:32;100708.75;;;30.84;12.40
50105;BME280;47690;39.202;-77.198;2022-10-22T09:22:06;100714.72;;;30.38;12.32
50105;BME280;47690;39.202;-77.198;2022-10-22T09:27:44;100717.94;;;30.22;12.51
50105;BME280;47690;39.202;-77.198;2022-10-22T09:31:15;100719.91;;;30.40;12.45
50105;BME280;47690;39.202;-77.198;2022-10-22T09:33:59;100731.50;;;30.49;12.49
50105;BME280;47690;39.202;-77.198;2022-10-22T09:37:19;100724.25;;;30.41;12.07
50105;BME280;47690;39.202;-77.198;2022-10-22T09:41:25;100732.06;;;30.52;12.13
50105;BME280;47690;39.202;-77.198;2022-10-22T09:44:04;100738.06;;;30.64;12.17
50105;BME280;47690;39.202;-77.198;2022-10-22T09:46:40;100735.13;;;30.67;12.14
50105;BME280;47690;39.202;-77.198;2022-10-22T09:49:36;100743.09;;;30.67;12.19
50105;BME280;47690;39.202;-77.198;2022-10-22T09:52:40;100748.09;;;30.80;12.24
50105;BME280;47690;39.202;-77.198;2022-10-22T09:55:49;100744.41;;;31.01;12.33
50105;BME280;47690;39.202;-77.198;2022-10-22T09:58:43;100750.78;;;31.18;12.10
50105;BME280;47690;39.202;-77.198;2022-10-22T10:01:22;100754.25;;;31.29;12.00
50105;BME280;47690;39.202;-77.198;2022-10-22T10:04:11;100755.38;;;31.26;12.15
50105;BME280;47690;39.202;-77.198;2022-10-22T10:06:44;100761.03;;;31.13;11.95
50105;BME280;47690;39.202;-77.198;2022-10-22T10:09:40;100769.94;;;30.84;12.15
50105;BME280;47690;39.202;-77.198;2022-10-22T10:12:42;100771.63;;;30.56;12.08
50105;BME280;47690;39.202;-77.198;2022-10-22T10:21:08;100775.00;;;30.48;12.10
50105;BME280;47690;39.202;-77.198;2022-10-22T10:24:14;100776.13;;;30.45;11.97
50105;BME280;47690;39.202;-77.198;2022-10-22T10:40:27;100776.97;;;29.55;12.69
50105;BME280;47690;39.202;-77.198;2022-10-22T10:43:29;100779.88;;;29.52;12.58
50105;BME280;47690;39.202;-77.198;2022-10-22T11:03:33;100784.44;;;29.91;12.51
50105;BME280;47690;39.202;-77.198;2022-10-22T11:06:16;100780.97;;;29.91;12.25
50105;BME280;47690;39.202;-77.198;2022-10-22T11:09:12;100782.63;;;29.82;12.34
50105;BME280;47690;39.202;-77.198;2022-10-22T11:12:13;100788.53;;;29.95;12.37
50105;BME280;47690;39.202;-77.198;2022-10-22T11:14:54;100803.22;;;30.09;12.33
50105;BME280;47690;39.202;-77.198;2022-10-22T11:17:42;100805.63;;;30.32;12.10
50105;BME280;47690;39.202;-77.198;2022-10-22T11:20:37;100809.00;;;30.24;12.27
50105;BME280;47690;39.202;-77.198;2022-10-22T11:24:23;100808.81;;;30.06;12.48
50105;BME280;47690;39.202;-77.198;2022-10-22T11:26:59;100810.59;;;29.96;12.18
50105;BME280;47690;39.202;-77.198;2022-10-22T11:29:34;100816.47;;;29.90;12.55
50105;BME280;47690;39.202;-77.198;2022-10-22T11:32:17;100819.50;;;29.85;12.60
50105;BME280;47690;39.202;-77.198;2022-10-22T11:35:04;100832.78;;;29.75;12.55
50105;BME280;47690;39.202;-77.198;2022-10-22T11:37:53;100838.34;;;29.72;12.70
50105;BME280;47690;39.202;-77.198;2022-10-22T11:46:44;100833.44;;;30.08;12.33
50105;BME280;47690;39.202;-77.198;2022-10-22T11:49:17;100847.88;;;29.84;12.47
50105;BME280;47690;39.202;-77.198;2022-10-22T11:55:28;100856.13;;;29.91;12.39
50105;BME280;47690;39.202;-77.198;2022-10-22T11:58:01;100856.69;;;29.85;12.41
50105;BME280;47690;39.202;-77.198;2022-10-22T12:00:54;100853.78;;;29.88;12.42
50105;BME280;47690;39.202;-77.198;2022-10-22T12:04:22;100861.31;;;29.93;12.50
50105;BME280;47690;39.202;-77.198;2022-10-22T12:15:48;100877.84;;;30.97;12.10
50105;BME280;47690;39.202;-77.198;2022-10-22T12:25:44;100888.91;;;35.37;11.20
50105;BME280;47690;39.202;-77.198;2022-10-22T12:35:19;100892.50;;;36.56;9.90
50105;BME280;47690;39.202;-77.198;2022-10-22T12:40:48;100894.97;;;36.66;10.39
50105;BME280;47690;39.202;-77.198;2022-10-22T12:45:38;100891.94;;;37.07;10.23
50105;BME280;47690;39.202;-77.198;2022-10-22T12:51:14;100901.22;;;37.65;9.95
50105;BME280;47690;39.202;-77.198;2022-10-22T12:54:06;100917.56;;;38.80;9.64
50105;BME280;47690;39.202;-77.198;2022-10-22T12:56:44;100920.47;;;38.35;9.75
50105;BME280;47690;39.202;-77.198;2022-10-22T13:20:35;100940.00;;;40.56;9.69
50105;BME280;47690;39.202;-77.198;2022-10-22T13:24:19;100941.63;;;40.64;9.63
50105;BME280;47690;39.202;-77.198;2022-10-22T13:27:41;100937.91;;;40.72;9.52
50105;BME280;47690;39.202;-77.198;2022-10-22T13:30:56;100934.78;;;40.75;9.27
50105;BME280;47690;39.202;-77.198;2022-10-22T13:33:35;100933.38;;;40.86;9.11
50105;BME280;47690;39.202;-77.198;2022-10-22T13:36:13;100935.44;;;40.97;9.37
50105;BME280;47690;39.202;-77.198;2022-10-22T13:39:01;100938.56;;;40.94;9.19
50105;BME280;47690;39.202;-77.198;2022-10-22T13:41:41;100927.78;;;40.80;9.61
50105;BME280;47690;39.202;-77.198;2022-10-22T13:44:13;100937.50;;;40.61;9.53
50105;BME280;47690;39.202;-77.198;2022-10-22T13:46:44;100933.09;;;40.33;9.46
50105;BME280;47690;39.202;-77.198;2022-10-22T13:49:32;100942.00;;;40.20;10.00
50105;BME280;47690;39.202;-77.198;2022-10-22T13:52:38;100933.47;;;40.17;9.96
50105;BME280;47690;39.202;-77.198;2022-10-22T13:55:23;100938.69;;;40.25;9.84
50105;BME280;47690;39.202;-77.198;2022-10-22T14:01:44;100931.59;;;40.17;10.21
50105;BME280;47690;39.202;-77.198;2022-10-22T14:40:38;100938.19;;;41.76;9.72
50105;BME280;47690;39.202;-77.198;2022-10-22T14:43:28;100939.78;;;41.91;9.72
50105;BME280;47690;39.202;-77.198;2022-10-22T14:52:30;100928.91;;;42.37;9.55
50105;BME280;47690;39.202;-77.198;2022-10-22T14:57:43;100917.63;;;43.53;8.84
50105;BME280;47690;39.202;-77.198;2022-10-22T15:02:54;100926.81;;;44.02;8.37
50105;BME280;47690;39.202;-77.198;2022-10-22T15:08:03;100935.97;;;44.74;8.07
50105;BME280;47690;39.202;-77.198;2022-10-22T15:13:13;100931.72;;;45.96;8.45
50105;BME280;47690;39.202;-77.198;2022-10-22T15:18:11;100921.00;;;46.06;7.59
50105;BME280;47690;39.202;-77.198;2022-10-22T15:28:17;100909.84;;;45.91;7.92
50105;BME280;47690;39.202;-77.198;2022-10-22T15:37:05;100910.78;;;45.67;8.06
50105;BME280;47690;39.202;-77.198;2022-10-22T15:39:40;100901.53;;;45.68;7.68
50105;BME280;47690;39.202;-77.198;2022-10-22T15:42:12;100902.00;;;45.65;7.69
50105;BME280;47690;39.202;-77.198;2022-10-22T15:44:48;100896.91;;;45.69;7.44
50105;BME280;47690;39.202;-77.198;2022-10-22T15:47:32;100902.34;;;45.81;7.82
50105;BME280;47690;39.202;-77.198;2022-10-22T15:50:14;100910.25;;;45.82;7.92
50105;BME280;47690;39.202;-77.198;2022-10-22T15:52:51;100910.09;;;45.89;7.68
50105;BME280;47690;39.202;-77.198;2022-10-22T15:55:31;100911.19;;;46.05;7.32
50105;BME280;47690;39.202;-77.198;2022-10-22T15:58:01;100911.16;;;45.88;7.08
50105;BME280;47690;39.202;-77.198;2022-10-22T16:00:31;100914.91;;;45.70;7.42
50105;BME280;47690;39.202;-77.198;2022-10-22T16:03:03;100926.81;;;45.69;7.58
50105;BME280;47690;39.202;-77.198;2022-10-22T16:05:33;100922.13;;;45.64;7.63
50105;BME280;47690;39.202;-77.198;2022-10-22T16:08:08;100915.72;;;45.70;7.01
50105;BME280;47690;39.202;-77.198;2022-10-22T16:10:44;100910.50;;;45.81;7.49
50105;BME280;47690;39.202;-77.198;2022-10-22T16:13:20;100908.84;;;45.68;7.05
50105;BME280;47690;39.202;-77.198;2022-10-22T16:16:08;100899.47;;;45.88;7.42
50105;BME280;47690;39.202;-77.198;2022-10-22T16:18:43;100899.88;;;45.96;7.15
50105;BME280;47690;39.202;-77.198;2022-10-22T16:21:13;100898.00;;;46.14;7.03
50105;BME280;47690;39.202;-77.198;2022-10-22T16:23:51;100891.22;;;46.17;7.19
50105;BME280;47690;39.202;-77.198;2022-10-22T16:26:36;100886.94;;;46.21;7.17
50105;BME280;47690;39.202;-77.198;2022-10-22T16:29:19;100880.69;;;46.20;6.86
50105;BME280;47690;39.202;-77.198;2022-10-22T16:32:16;100885.50;;;46.30;7.23
50105;BME280;47690;39.202;-77.198;2022-10-22T16:35:00;100890.59;;;46.44;6.82
50105;BME280;47690;39.202;-77.198;2022-10-22T16:37:45;100884.63;;;46.47;7.21
50105;BME280;47690;39.202;-77.198;2022-10-22T16:40:30;100882.81;;;46.70;6.64
50105;BME280;47690;39.202;-77.198;2022-10-22T16:43:07;100881.41;;;46.67;6.94
50105;BME280;47690;39.202;-77.198;2022-10-22T16:45:52;100879.88;;;46.76;6.46
50105;BME280;47690;39.202;-77.198;2022-10-22T16:48:23;100881.44;;;46.89;6.52
50105;BME280;47690;39.202;-77.198;2022-10-22T16:51:09;100880.25;;;47.02;6.39
50105;BME280;47690;39.202;-77.198;2022-10-22T16:53:44;100878.69;;;47.07;6.56
50105;BME280;47690;39.202;-77.198;2022-10-22T16:56:16;100882.28;;;47.12;6.66
50105;BME280;47690;39.202;-77.198;2022-10-22T16:58:48;100877.16;;;47.16;6.27
50105;BME280;47690;39.202;-77.198;2022-10-22T17:01:24;100871.94;;;47.14;6.94
50105;BME280;47690;39.202;-77.198;2022-10-22T17:04:07;100861.34;;;47.18;6.33
50105;BME280;47690;39.202;-77.198;2022-10-22T17:06:39;100860.03;;;47.21;6.55
50105;BME280;47690;39.202;-77.198;2022-10-22T17:09:12;100855.59;;;47.14;6.65
50105;BME280;47690;39.202;-77.198;2022-10-22T17:11:46;100850.66;;;47.11;6.64
50105;BME280;47690;39.202;-77.198;2022-10-22T17:14:19;100846.22;;;47.05;6.28
50105;BME280;47690;39.202;-77.198;2022-10-22T17:16:49;100841.03;;;47.03;6.15
50105;BME280;47690;39.202;-77.198;2022-10-22T17:19:28;100837.59;;;47.13;6.45
50105;BME280;47690;39.202;-77.198;2022-10-22T17:22:10;100839.31;;;47.19;6.29
50105;BME280;47690;39.202;-77.198;2022-10-22T17:25:07;100831.78;;;47.32;6.51
50105;BME280;47690;39.202;-77.198;2022-10-22T17:27:39;100824.59;;;47.76;6.26
50105;BME280;47690;39.202;-77.198;2022-10-22T17:30:17;100820.94;;;48.35;5.50
50105;BME280;47690;39.202;-77.198;2022-10-22T17:32:56;100821.28;;;48.44;5.83
50105;BME280;47690;39.202;-77.198;2022-10-22T17:35:31;100809.53;;;48.44;5.87
50105;BME280;47690;39.202;-77.198;2022-10-22T17:38:02;100806.38;;;47.54;5.77
50105;BME280;47690;39.202;-77.198;2022-10-22T17:40:33;100803.53;;;47.16;6.06
50105;BME280;47690;39.202;-77.198;2022-10-22T17:43:19;100801.53;;;47.33;6.31
50105;BME280;47690;39.202;-77.198;2022-10-22T17:46:04;100805.22;;;47.44;6.22
50105;BME280;47690;39.202;-77.198;2022-10-22T17:48:40;100800.91;;;47.26;6.41
50105;BME280;47690;39.202;-77.198;2022-10-22T17:51:11;100793.44;;;47.16;6.09
50105;BME280;47690;39.202;-77.198;2022-10-22T17:53:42;100789.38;;;47.19;5.87
50105;BME280;47690;39.202;-77.198;2022-10-22T17:56:21;100788.00;;;47.16;5.45
50105;BME280;47690;39.202;-77.198;2022-10-22T17:59:10;100787.19;;;47.16;6.02
50105;BME280;47690;39.202;-77.198;2022-10-22T18:02:15;100783.59;;;47.10;5.69
50105;BME280;47690;39.202;-77.198;2022-10-22T18:04:55;100775.84;;;47.02;5.51
50105;BME280;47690;39.202;-77.198;2022-10-22T18:08:03;100781.91;;;47.09;6.43
50105;BME280;47690;39.202;-77.198;2022-10-22T18:10:40;100780.13;;;47.20;6.09
50105;BME280;47690;39.202;-77.198;2022-10-22T18:13:13;100787.28;;;47.26;5.74
50105;BME280;47690;39.202;-77.198;2022-10-22T18:15:58;100789.31;;;47.36;6.02
50105;BME280;47690;39.202;-77.198;2022-10-22T18:18:52;100791.63;;;47.50;6.14
50105;BME280;47690;39.202;-77.198;2022-10-22T18:22:08;100793.69;;;47.70;6.00
50105;BME280;47690;39.202;-77.198;2022-10-22T18:26:20;100781.69;;;47.71;5.49
50105;BME280;47690;39.202;-77.198;2022-10-22T18:29:49;100776.22;;;47.71;5.61
50105;BME280;47690;39.202;-77.198;2022-10-22T18:33:33;100775.91;;;47.62;5.82
50105;BME280;47690;39.202;-77.198;2022-10-22T18:36:59;100775.06;;;47.62;5.77
50105;BME280;47690;39.202;-77.198;2022-10-22T18:41:40;100771.72;;;47.82;5.88
50105;BME280;47690;39.202;-77.198;2022-10-22T18:45:01;100775.59;;;47.91;5.47
50105;BME280;47690;39.202;-77.198;2022-10-22T18:48:51;100770.53;;;48.10;5.38
50105;BME280;47690;39.202;-77.198;2022-10-22T18:51:36;100773.03;;;48.12;5.85
50105;BME280;47690;39.202;-77.198;2022-10-22T18:57:48;100777.00;;;47.99;5.50
50105;BME280;47690;39.202;-77.198;2022-10-22T19:00:40;100787.50;;;48.12;5.47
50105;BME280;47690;39.202;-77.198;2022-10-22T19:13:37;100772.31;;;47.89;5.40
50105;BME280;47690;39.202;-77.198;2022-10-22T19:16:25;100772.91;;;47.96;5.29
50105;BME280;47690;39.202;-77.198;2022-10-22T19:25:08;100787.88;;;47.94;5.24
50105;BME280;47690;39.202;-77.198;2022-10-22T19:39:16;100782.03;;;47.75;5.32
50105;BME280;47690;39.202;-77.198;2022-10-22T19:52:29;100757.81;;;47.83;5.70
50105;BME280;47690;39.202;-77.198;2022-10-22T19:57:29;100760.69;;;47.71;5.38
50105;BME280;47690;39.202;-77.198;2022-10-22T20:01:50;100755.63;;;47.85;5.31
50105;BME280;47690;39.202;-77.198;2022-10-22T20:15:57;100770.28;;;48.12;5.58
50105;BME280;47690;39.202;-77.198;2022-10-22T20:21:15;100778.56;;;48.27;5.56
50105;BME280;47690;39.202;-77.198;2022-10-22T20:29:32;100776.00;;;48.10;4.98
50105;BME280;47690;39.202;-77.198;2022-10-22T20:32:21;100778.09;;;47.98;5.13
50105;BME280;47690;39.202;-77.198;2022-10-22T20:35:10;100769.28;;;47.85;4.96
50105;BME280;47690;39.202;-77.198;2022-10-22T20:37:45;100762.44;;;47.83;5.05
50105;BME280;47690;39.202;-77.198;2022-10-22T20:48:56;100761.84;;;47.76;4.79
50105;BME280;47690;39.202;-77.198;2022-10-22T20:53:59;100769.09;;;47.65;4.80
50105;BME280;47690;39.202;-77.198;2022-10-22T20:58:51;100772.59;;;47.60;5.41
50105;BME280;47690;39.202;-77.198;2022-10-22T21:02:11;100778.34;;;47.64;5.26
50105;BME280;47690;39.202;-77.198;2022-10-22T21:04:44;100777.16;;;47.82;4.82
50105;BME280;47690;39.202;-77.198;2022-10-22T21:08:20;100773.34;;;47.83;4.86
50105;BME280;47690;39.202;-77.198;2022-10-22T21:12:32;100779.34;;;47.80;4.85
50105;BME280;47690;39.202;-77.198;2022-10-22T21:21:08;100791.16;;;47.58;4.89
50105;BME280;47690;39.202;-77.198;2022-10-22T21:24:49;100792.72;;;47.54;5.25
50105;BME280;47690;39.202;-77.198;2022-10-22T21:28:36;100792.97;;;47.47;5.26
50105;BME280;47690;39.202;-77.198;2022-10-22T21:32:12;100787.19;;;47.43;4.97
50105;BME280;47690;39.202;-77.198;2022-10-22T21:36:20;100795.16;;;47.50;5.26
50105;BME280;47690;39.202;-77.198;2022-10-22T21:39:07;100797.88;;;47.50;5.29
50105;BME280;47690;39.202;-77.198;2022-10-22T21:46:32;100786.06;;;47.39;5.07
50105;BME280;47690;39.202;-77.198;2022-10-22T21:55:49;100792.25;;;47.07;5.28
50105;BME280;47690;39.202;-77.198;2022-10-22T22:05:38;100805.81;;;47.24;5.84
50105;BME280;47690;39.202;-77.198;2022-10-22T22:11:25;100804.97;;;47.24;5.83
50105;BME280;47690;39.202;-77.198;2022-10-22T22:14:22;100807.44;;;47.25;5.83
50105;BME280;47690;39.202;-77.198;2022-10-22T22:18:47;100793.97;;;47.13;5.49
50105;BME280;47690;39.202;-77.198;2022-10-22T22:21:44;100798.25;;;47.04;5.51
50105;BME280;47690;39.202;-77.198;2022-10-22T22:25:20;100797.84;;;46.95;6.05
50105;BME280;47690;39.202;-77.198;2022-10-22T22:28:39;100797.19;;;46.88;5.75
50105;BME280;47690;39.202;-77.198;2022-10-22T22:31:11;100796.56;;;46.81;5.94
50105;BME280;47690;39.202;-77.198;2022-10-22T22:33:46;100798.28;;;46.64;6.36
50105;BME280;47690;39.202;-77.198;2022-10-22T22:43:16;100794.38;;;46.21;6.44
50105;BME280;47690;39.202;-77.198;2022-10-22T22:47:01;100783.25;;;46.05;6.55
50105;BME280;47690;39.202;-77.198;2022-10-22T22:50:02;100793.31;;;46.05;6.78
50105;BME280;47690;39.202;-77.198;2022-10-22T23:06:16;100799.13;;;45.33;6.84
50105;BME280;47690;39.202;-77.198;2022-10-22T23:08:49;100800.16;;;45.15;7.11
50105;BME280;47690;39.202;-77.198;2022-10-22T23:15:30;100820.69;;;44.82;7.18
50105;BME280;47690;39.202;-77.198;2022-10-22T23:21:29;100832.16;;;44.60;7.79
50105;BME280;47690;39.202;-77.198;2022-10-22T23:24:10;100843.38;;;44.64;7.50
50105;BME280;47690;39.202;-77.198;2022-10-22T23:27:45;100846.34;;;44.62;7.53
50105;BME280;47690;39.202;-77.198;2022-10-22T23:31:44;100850.78;;;44.20;7.70
50105;BME280;47690;39.202;-77.198;2022-10-22T23:34:39;100856.28;;;44.02;7.64
50105;BME280;47690;39.202;-77.198;2022-10-22T23:37:14;100856.84;;;43.92;7.77
50105;BME280;47690;39.202;-77.198;2022-10-22T23:43:51;100862.81;;;43.82;7.86
50105;BME280;47690;39.202;-77.198;2022-10-22T23:47:33;100862.47;;;43.78;7.80
50105;BME280;47690;39.202;-77.198;2022-10-22T23:55:10;100867.47;;;43.07;8.32
